Terminal Aerodrome Forecast
Issued by NWS

Current Version | Previous Version | Text Only | Print | Product List | Glossary On
Versions: 1 2 3 4 5 6 7 8 9 10 11 12 13 14 15 16 17
000
FTUS45 KABQ 272300 RRA
TAFROW
TAF
KROW 272343Z 2800/2824 15010KT P6SM VCSH OVC019
     FM280400 13008KT 3SM BR VCSH BKN015 OVC030
      TEMPO 2810/2814 2SM BR OVC008
     FM281700 17013KT P6SM VCSH SCT015 OVC035=

USA.gov is the U.S. government's official web portal to all federal, state and local government web resources and services.